createdAt,value
2016-12-13T00:00:12.994Z,0
2016-12-13T00:01:12.977Z,0
2016-12-13T00:02:12.954Z,0
2016-12-13T00:03:12.942Z,0
2016-12-13T00:04:12.930Z,0
2016-12-13T00:05:13.210Z,0
2016-12-13T00:06:12.888Z,0
2016-12-13T00:07:12.867Z,0
2016-12-13T00:08:12.852Z,0
2016-12-13T00:09:12.841Z,0
2016-12-13T00:10:12.826Z,0
2016-12-13T00:11:12.807Z,0
2016-12-13T00:12:12.788Z,0
2016-12-13T00:13:12.766Z,0
2016-12-13T00:14:13.064Z,0
2016-12-13T00:15:12.737Z,0
2016-12-13T00:16:12.734Z,0
2016-12-13T00:17:12.704Z,0
2016-12-13T00:18:12.987Z,0
2016-12-13T00:19:12.677Z,0
2016-12-13T00:20:12.656Z,0
2016-12-13T00:21:12.654Z,0
2016-12-13T00:22:12.619Z,0
2016-12-13T00:23:12.613Z,0
2016-12-13T00:24:12.896Z,0
2016-12-13T00:25:12.577Z,0
2016-12-13T00:26:12.551Z,0
2016-12-13T00:27:12.848Z,0
2016-12-13T00:28:12.821Z,0
2016-12-13T00:29:12.513Z,0
2016-12-13T00:30:12.483Z,0
2016-12-13T00:31:12.492Z,0
2016-12-13T00:32:12.459Z,0
2016-12-13T00:33:12.453Z,0
2016-12-13T00:34:12.417Z,0
2016-12-13T00:35:12.400Z,0
2016-12-13T00:36:12.386Z,0
2016-12-13T00:37:12.368Z,0
2016-12-13T00:38:12.381Z,0
2016-12-13T00:39:12.335Z,0
2016-12-13T00:40:12.316Z,0
2016-12-13T00:41:12.305Z,0
2016-12-13T00:42:12.614Z,0
2016-12-13T00:43:12.271Z,0
2016-12-13T00:44:12.253Z,0
2016-12-13T00:45:12.234Z,0
2016-12-13T00:46:12.221Z,0
2016-12-13T00:47:12.198Z,0
2016-12-13T00:48:12.184Z,0
2016-12-13T00:49:12.186Z,0
2016-12-13T00:50:12.152Z,0
2016-12-13T00:51:12.129Z,0
2016-12-13T00:52:12.120Z,0
2016-12-13T00:53:12.103Z,0
2016-12-13T00:54:12.088Z,0
2016-12-13T00:55:12.066Z,0
2016-12-13T00:56:12.051Z,0
2016-12-13T00:57:12.029Z,0
2016-12-13T00:58:12.012Z,0
2016-12-13T00:59:11.997Z,0
2016-12-13T01:00:11.986Z,0
2016-12-13T01:01:11.962Z,0
2016-12-13T01:02:11.950Z,0
2016-12-13T01:03:11.931Z,0
2016-12-13T01:04:11.922Z,0
2016-12-13T01:05:11.894Z,0
2016-12-13T01:06:11.876Z,0
2016-12-13T01:07:12.164Z,0
2016-12-13T01:08:12.153Z,0
2016-12-13T01:09:12.136Z,0
2016-12-13T01:10:11.816Z,0
2016-12-13T01:11:11.800Z,0
2016-12-13T01:12:11.785Z,0
2016-12-13T01:13:11.806Z,0
2016-12-13T01:14:11.748Z,0
2016-12-13T01:15:11.733Z,0
2016-12-13T01:16:11.717Z,0
2016-12-13T01:17:11.694Z,0
2016-12-13T01:18:11.676Z,0
2016-12-13T01:19:11.660Z,0
2016-12-13T01:20:11.653Z,0
2016-12-13T01:21:11.620Z,0
2016-12-13T01:22:11.612Z,0
2016-12-13T01:23:11.595Z,0
2016-12-13T01:24:11.572Z,0
2016-12-13T01:25:11.572Z,0
2016-12-13T01:26:11.547Z,0
2016-12-13T01:27:11.523Z,0
2016-12-13T01:28:11.516Z,0
2016-12-13T01:29:11.796Z,0
2016-12-13T01:30:11.474Z,0
2016-12-13T01:31:11.467Z,0
2016-12-13T01:32:11.447Z,0
2016-12-13T01:33:11.727Z,0
2016-12-13T01:34:11.413Z,0
2016-12-13T01:35:11.387Z,0
2016-12-13T01:36:11.375Z,0
2016-12-13T01:37:11.356Z,0
2016-12-13T01:38:11.344Z,0
2016-12-13T01:39:11.327Z,0
2016-12-13T01:40:11.312Z,0
2016-12-13T01:41:11.288Z,0
2016-12-13T01:42:11.277Z,0
2016-12-13T01:43:11.266Z,0
2016-12-13T01:44:11.250Z,0
2016-12-13T01:45:11.221Z,0
2016-12-13T01:46:11.210Z,0
2016-12-13T01:47:11.194Z,0
2016-12-13T01:48:11.188Z,0
2016-12-13T01:49:11.155Z,0
2016-12-13T01:50:11.141Z,0
2016-12-13T01:51:11.124Z,0
2016-12-13T01:52:11.415Z,0
2016-12-13T01:53:11.092Z,0
2016-12-13T01:54:11.076Z,0
2016-12-13T01:55:11.054Z,0
2016-12-13T01:56:11.059Z,0
2016-12-13T01:57:11.024Z,0
2016-12-13T01:58:11.014Z,0
2016-12-13T01:59:10.987Z,0
2016-12-13T02:00:10.972Z,0
2016-12-13T02:01:10.955Z,0
2016-12-13T02:02:10.947Z,0
2016-12-13T02:03:10.923Z,0
2016-12-13T02:04:10.931Z,0
2016-12-13T02:05:11.198Z,0
2016-12-13T02:06:10.873Z,0
2016-12-13T02:07:10.883Z,0
2016-12-13T02:08:10.838Z,0
2016-12-13T02:09:10.828Z,0
2016-12-13T02:10:10.811Z,0
2016-12-13T02:11:10.812Z,0
2016-12-13T02:12:10.770Z,0
2016-12-13T02:13:10.749Z,0
2016-12-13T02:14:11.043Z,0
2016-12-13T02:15:10.723Z,0
2016-12-13T02:16:11.012Z,0
2016-12-13T02:17:10.999Z,0
2016-12-13T02:18:10.973Z,0
2016-12-13T02:19:10.681Z,0
2016-12-13T02:20:10.653Z,0
2016-12-13T02:21:10.924Z,0
2016-12-13T02:22:10.603Z,0
2016-12-13T02:23:10.584Z,0
2016-12-13T02:24:10.574Z,0
2016-12-13T02:25:10.555Z,0
2016-12-13T02:26:10.534Z,0
2016-12-13T02:27:10.524Z,0
2016-12-13T02:28:10.508Z,0
2016-12-13T02:29:10.483Z,0
2016-12-13T02:30:10.472Z,0
2016-12-13T02:31:10.452Z,0
2016-12-13T02:32:10.435Z,0
2016-12-13T02:33:10.722Z,0
2016-12-13T02:34:10.409Z,0
2016-12-13T02:35:10.394Z,0
2016-12-13T02:36:10.366Z,0
2016-12-13T02:37:10.362Z,0
2016-12-13T02:38:10.340Z,0
2016-12-13T02:39:10.324Z,0
2016-12-13T02:40:10.604Z,0
2016-12-13T02:41:10.284Z,0
2016-12-13T02:42:10.279Z,0
2016-12-13T02:43:10.263Z,0
2016-12-13T02:44:10.256Z,0
2016-12-13T02:45:10.219Z,0
2016-12-13T02:46:10.238Z,0
2016-12-13T02:47:10.184Z,0
2016-12-13T02:48:10.170Z,0
2016-12-13T02:49:10.153Z,0
2016-12-13T02:50:10.143Z,0
2016-12-13T02:51:10.118Z,0
2016-12-13T02:52:10.107Z,0
2016-12-13T02:53:10.089Z,0
2016-12-13T02:54:10.064Z,0
2016-12-13T02:55:10.053Z,0
2016-12-13T02:56:10.332Z,0
2016-12-13T02:57:10.019Z,0
2016-12-13T02:58:10.007Z,0
2016-12-13T02:59:09.975Z,0
2016-12-13T03:00:09.966Z,0
2016-12-13T03:01:09.949Z,0
2016-12-13T03:02:09.930Z,0
2016-12-13T03:03:10.218Z,0
2016-12-13T03:04:09.930Z,0
2016-12-13T03:05:09.882Z,0
2016-12-13T03:06:09.867Z,0
2016-12-13T03:07:09.845Z,0
2016-12-13T03:08:09.831Z,0
2016-12-13T03:09:09.821Z,0
2016-12-13T03:10:09.818Z,0
2016-12-13T03:11:09.777Z,0
2016-12-13T03:12:09.766Z,0
2016-12-13T03:13:09.782Z,0
2016-12-13T03:14:09.736Z,0
2016-12-13T03:15:09.719Z,0
2016-12-13T03:16:09.707Z,0
2016-12-13T03:17:09.714Z,0
2016-12-13T03:18:09.669Z,0
2016-12-13T03:19:09.653Z,0
2016-12-13T03:20:09.626Z,0
2016-12-13T03:21:09.612Z,0
2016-12-13T03:22:09.595Z,0
2016-12-13T03:23:09.582Z,0
2016-12-13T03:24:09.595Z,0
2016-12-13T03:25:09.546Z,0
2016-12-13T03:26:09.532Z,0
2016-12-13T03:27:09.522Z,0
2016-12-13T03:28:09.528Z,0
2016-12-13T03:29:09.482Z,0
2016-12-13T03:30:09.495Z,0
2016-12-13T03:31:09.449Z,0
2016-12-13T03:32:09.423Z,0
2016-12-13T03:33:09.411Z,0
2016-12-13T03:34:09.401Z,0
2016-12-13T03:35:09.376Z,0
2016-12-13T03:36:09.370Z,0
2016-12-13T03:37:09.344Z,0
2016-12-13T03:38:09.351Z,0
2016-12-13T03:39:09.316Z,0
2016-12-13T03:40:09.300Z,0
2016-12-13T03:41:09.284Z,0
2016-12-13T03:42:09.563Z,0
2016-12-13T03:43:09.252Z,0
2016-12-13T03:44:09.229Z,0
2016-12-13T03:45:09.242Z,0
2016-12-13T03:46:09.197Z,0
2016-12-13T03:47:09.183Z,0
2016-12-13T03:48:09.164Z,0
2016-12-13T03:49:09.142Z,0
2016-12-13T03:50:09.437Z,0
2016-12-13T03:51:09.115Z,0
2016-12-13T03:52:09.094Z,0
2016-12-13T03:53:09.078Z,0
2016-12-13T03:54:09.374Z,0
2016-12-13T03:55:09.352Z,0
2016-12-13T03:56:09.027Z,0
2016-12-13T03:57:09.009Z,0
2016-12-13T03:58:08.992Z,0
2016-12-13T03:59:08.980Z,0
2016-12-13T04:00:08.968Z,0
2016-12-13T04:01:08.940Z,0
2016-12-13T04:02:08.927Z,0
2016-12-13T04:03:08.912Z,0
2016-12-13T04:04:08.895Z,0
2016-12-13T04:05:08.878Z,0
2016-12-13T04:06:08.871Z,0
2016-12-13T04:07:08.845Z,0
2016-12-13T04:08:08.822Z,0
2016-12-13T04:09:08.821Z,0
2016-12-13T04:10:08.800Z,0
2016-12-13T04:11:08.788Z,0
2016-12-13T04:12:08.754Z,0
2016-12-13T04:13:08.757Z,0
2016-12-13T04:14:08.726Z,0
2016-12-13T04:15:08.710Z,0
2016-12-13T04:16:08.699Z,0
2016-12-13T04:17:08.988Z,0
2016-12-13T04:18:08.662Z,0
2016-12-13T04:19:08.649Z,0
2016-12-13T04:20:08.626Z,0
2016-12-13T04:21:08.614Z,0
2016-12-13T04:22:08.933Z,0
2016-12-13T04:23:08.576Z,0
2016-12-13T04:24:08.562Z,0
2016-12-13T04:25:08.545Z,0
2016-12-13T04:26:08.541Z,0
2016-12-13T04:27:08.513Z,0
2016-12-13T04:28:08.504Z,0
2016-12-13T04:29:08.485Z,0
2016-12-13T04:30:08.467Z,0
2016-12-13T04:31:08.444Z,0
2016-12-13T04:32:08.445Z,0
2016-12-13T04:33:08.423Z,0
2016-12-13T04:34:08.408Z,0
2016-12-13T04:35:08.385Z,0
2016-12-13T04:36:08.375Z,0
2016-12-13T04:37:08.345Z,0
2016-12-13T04:38:08.341Z,0
2016-12-13T04:39:08.323Z,0
2016-12-13T04:40:08.314Z,0
2016-12-13T04:41:08.303Z,0
2016-12-13T04:42:08.277Z,0
2016-12-13T04:43:08.561Z,0
2016-12-13T04:44:08.249Z,0
2016-12-13T04:45:08.229Z,0
2016-12-13T04:46:08.213Z,0
2016-12-13T04:47:08.201Z,0
2016-12-13T04:48:08.182Z,0
2016-12-13T04:49:08.166Z,0
2016-12-13T04:50:08.156Z,0
2016-12-13T04:51:08.132Z,0
2016-12-13T04:52:08.124Z,0
2016-12-13T04:53:08.098Z,0
2016-12-13T04:54:08.093Z,0
2016-12-13T04:55:08.106Z,0
2016-12-13T04:56:08.061Z,0
2016-12-13T04:57:08.050Z,0
2016-12-13T04:58:08.040Z,0
2016-12-13T04:59:08.013Z,0
2016-12-13T05:00:08.004Z,0
2016-12-13T05:01:07.981Z,0
2016-12-13T05:02:07.969Z,0
2016-12-13T05:03:07.959Z,0
2016-12-13T05:04:07.943Z,0
2016-12-13T05:05:07.929Z,0
2016-12-13T05:06:07.903Z,0
2016-12-13T05:07:08.208Z,0
2016-12-13T05:08:07.886Z,0
2016-12-13T05:09:07.859Z,0
2016-12-13T05:10:07.858Z,0
2016-12-13T05:11:07.831Z,0
2016-12-13T05:12:07.820Z,0
2016-12-13T05:13:07.805Z,0
2016-12-13T05:14:07.789Z,0
2016-12-13T05:15:07.775Z,0
2016-12-13T05:16:07.796Z,0
2016-12-13T05:17:07.743Z,0
2016-12-13T05:18:07.735Z,0
2016-12-13T05:19:07.721Z,0
2016-12-13T05:20:07.697Z,0
2016-12-13T05:21:07.686Z,0
2016-12-13T05:22:07.667Z,0
2016-12-13T05:23:07.655Z,0
2016-12-13T05:24:07.641Z,0
2016-12-13T05:25:07.623Z,0
2016-12-13T05:26:07.616Z,0
2016-12-13T05:27:07.596Z,0
2016-12-13T05:28:07.589Z,0
2016-12-13T05:29:07.579Z,0
2016-12-13T05:30:07.853Z,0
2016-12-13T05:31:07.541Z,0
2016-12-13T05:32:07.522Z,0
2016-12-13T05:33:07.814Z,0
2016-12-13T05:34:07.504Z,0
2016-12-13T05:35:07.490Z,0
2016-12-13T05:36:07.467Z,0
2016-12-13T05:37:07.444Z,0
2016-12-13T05:38:08.042Z,0
2016-12-13T05:39:07.424Z,0
2016-12-13T05:40:07.407Z,0
2016-12-13T05:41:07.688Z,0
2016-12-13T05:42:07.379Z,0
2016-12-13T05:43:07.364Z,0
2016-12-13T05:44:07.342Z,0
2016-12-13T05:45:07.337Z,0
2016-12-13T05:46:07.341Z,0
2016-12-13T05:47:07.301Z,0
2016-12-13T05:48:07.288Z,0
2016-12-13T05:49:07.279Z,0
2016-12-13T05:50:07.267Z,0
2016-12-13T05:51:07.241Z,0
2016-12-13T05:52:07.226Z,0
2016-12-13T05:53:07.209Z,0
2016-12-13T05:54:07.196Z,0
2016-12-13T05:55:07.495Z,0
2016-12-13T05:56:07.178Z,0
2016-12-13T05:57:07.157Z,0
2016-12-13T05:58:07.148Z,0
2016-12-13T05:59:07.131Z,0
2016-12-13T06:00:07.122Z,0
2016-12-13T06:01:07.433Z,0
2016-12-13T06:02:07.082Z,0
2016-12-13T06:03:07.072Z,0
2016-12-13T06:04:07.062Z,0
2016-12-13T06:05:07.047Z,0
2016-12-13T06:06:07.035Z,0
2016-12-13T06:07:07.011Z,0
2016-12-13T06:08:07.002Z,0
2016-12-13T06:09:06.987Z,0
2016-12-13T06:10:06.975Z,0
2016-12-13T06:11:06.955Z,0
2016-12-13T06:12:06.946Z,0
2016-12-13T06:13:07.225Z,0
2016-12-13T06:14:07.214Z,0
2016-12-13T06:15:06.906Z,0
2016-12-13T06:16:06.887Z,0
2016-12-13T06:17:06.896Z,0
2016-12-13T06:18:07.154Z,0
2016-12-13T06:19:06.838Z,0
2016-12-13T06:20:06.827Z,0
2016-12-13T06:21:06.817Z,0
2016-12-13T06:22:06.796Z,0
2016-12-13T06:23:06.789Z,0
2016-12-13T06:24:06.764Z,0
2016-12-13T06:25:06.759Z,0
2016-12-13T06:26:06.742Z,0
2016-12-13T06:27:06.746Z,0
2016-12-13T06:28:06.718Z,0
2016-12-13T06:29:06.704Z,0
2016-12-13T06:30:06.682Z,0
2016-12-13T06:31:06.674Z,0
2016-12-13T06:32:06.655Z,0
2016-12-13T06:33:06.642Z,0
2016-12-13T06:34:06.619Z,0
2016-12-13T06:35:06.624Z,0
2016-12-13T06:36:06.599Z,0
2016-12-13T06:37:06.584Z,0
2016-12-13T06:38:06.568Z,0
2016-12-13T06:39:06.560Z,0
2016-12-13T06:40:06.539Z,0
2016-12-13T06:41:06.532Z,0
2016-12-13T06:42:06.513Z,0
2016-12-13T06:43:06.799Z,0
2016-12-13T06:44:06.484Z,0
2016-12-13T06:45:06.475Z,0
2016-12-13T06:46:06.458Z,0
2016-12-13T06:47:06.444Z,0
2016-12-13T06:48:06.427Z,0
2016-12-13T06:49:06.413Z,0
2016-12-13T06:50:06.399Z,0
2016-12-13T06:51:06.393Z,0
2016-12-13T06:52:06.365Z,0
2016-12-13T06:53:06.362Z,0
2016-12-13T06:54:06.347Z,0
2016-12-13T06:55:06.325Z,0
2016-12-13T06:56:06.615Z,0
2016-12-13T06:57:06.298Z,0
2016-12-13T06:58:06.309Z,0
2016-12-13T06:59:06.265Z,0
2016-12-13T07:00:06.258Z,0
2016-12-13T07:01:06.538Z,0
2016-12-13T07:02:06.234Z,0
2016-12-13T07:03:06.210Z,5
2016-12-13T07:04:06.198Z,5
2016-12-13T07:05:06.188Z,5
2016-12-13T07:06:06.172Z,5
2016-12-13T07:07:06.155Z,5
2016-12-13T07:08:06.138Z,5
2016-12-13T07:09:06.132Z,5
2016-12-13T07:10:06.109Z,5
2016-12-13T07:11:06.095Z,5
2016-12-13T07:12:06.080Z,5
2016-12-13T07:13:06.060Z,10
2016-12-13T07:14:06.061Z,10
2016-12-13T07:15:06.053Z,10
2016-12-13T07:16:06.025Z,10
2016-12-13T07:17:06.320Z,10
2016-12-13T07:18:06.015Z,10
2016-12-13T07:19:05.980Z,15
2016-12-13T07:20:05.970Z,15
2016-12-13T07:21:05.959Z,15
2016-12-13T07:22:05.946Z,20
2016-12-13T07:23:05.923Z,20
2016-12-13T07:24:06.208Z,20
2016-12-13T07:25:05.923Z,25
2016-12-13T07:26:06.198Z,25
2016-12-13T07:27:05.866Z,30
2016-12-13T07:28:05.863Z,30
2016-12-13T07:29:05.841Z,30
2016-12-13T07:30:05.820Z,30
2016-12-13T07:31:05.810Z,30
2016-12-13T07:32:05.803Z,30
2016-12-13T07:33:06.086Z,30
2016-12-13T07:34:06.059Z,30
2016-12-13T07:35:05.759Z,30
2016-12-13T07:36:05.735Z,25
2016-12-13T07:37:05.722Z,30
2016-12-13T07:38:05.717Z,30
2016-12-13T07:39:05.695Z,30
2016-12-13T07:40:05.713Z,30
2016-12-13T07:41:05.663Z,30
2016-12-13T07:42:05.957Z,30
2016-12-13T07:43:05.643Z,30
2016-12-13T07:44:05.625Z,30
2016-12-13T07:45:05.610Z,30
2016-12-13T07:46:05.598Z,30
2016-12-13T07:47:05.593Z,30
2016-12-13T07:48:05.575Z,30
2016-12-13T07:49:05.558Z,35
2016-12-13T07:50:05.560Z,35
2016-12-13T07:51:05.532Z,35
2016-12-13T07:52:05.510Z,35
2016-12-13T07:53:05.503Z,35
2016-12-13T07:54:05.513Z,40
2016-12-13T07:55:05.472Z,40
2016-12-13T07:56:05.460Z,45
2016-12-13T07:57:05.451Z,45
2016-12-13T07:58:05.430Z,45
2016-12-13T07:59:05.726Z,45
2016-12-13T08:00:05.419Z,40
2016-12-13T08:01:05.412Z,40
2016-12-13T08:02:05.392Z,40
2016-12-13T08:03:05.376Z,40
2016-12-13T08:04:05.348Z,40
2016-12-13T08:05:05.332Z,40
2016-12-13T08:06:05.328Z,40
2016-12-13T08:07:05.306Z,40
2016-12-13T08:08:05.595Z,40
2016-12-13T08:09:05.287Z,40
2016-12-13T08:10:05.265Z,45
2016-12-13T08:11:05.285Z,45
2016-12-13T08:12:05.247Z,45
2016-12-13T08:13:05.238Z,45
2016-12-13T08:14:05.214Z,45
2016-12-13T08:15:05.193Z,50
2016-12-13T08:16:05.211Z,50
2016-12-13T08:17:05.175Z,50
2016-12-13T08:18:05.160Z,55
2016-12-13T08:19:05.462Z,55
2016-12-13T08:20:05.133Z,55
2016-12-13T08:21:05.124Z,55
2016-12-13T08:22:05.420Z,50
2016-12-13T08:23:05.094Z,50
2016-12-13T08:24:05.076Z,50
2016-12-13T08:25:05.107Z,55
2016-12-13T08:26:05.051Z,55
2016-12-13T08:27:05.042Z,60
2016-12-13T08:28:05.024Z,60
2016-12-13T08:29:05.011Z,60
2016-12-13T08:30:05.024Z,65
2016-12-13T08:31:04.988Z,65
2016-12-13T08:32:05.272Z,65
2016-12-13T08:33:04.969Z,65
2016-12-13T08:34:04.942Z,70
2016-12-13T08:35:04.932Z,70
2016-12-13T08:36:04.918Z,75
2016-12-13T08:37:04.908Z,75
2016-12-13T08:38:04.888Z,80
2016-12-13T08:39:04.881Z,80
2016-12-13T08:40:04.863Z,80
2016-12-13T08:41:04.849Z,80
2016-12-13T08:42:04.838Z,80
2016-12-13T08:43:04.821Z,85
2016-12-13T08:44:04.810Z,85
2016-12-13T08:45:04.798Z,85
2016-12-13T08:46:04.789Z,85
2016-12-13T08:47:04.774Z,85
2016-12-13T08:48:05.360Z,85
2016-12-13T08:49:04.748Z,90
2016-12-13T08:50:04.725Z,85
2016-12-13T08:51:04.721Z,85
2016-12-13T08:52:04.714Z,85
2016-12-13T08:53:04.994Z,85
2016-12-13T08:54:04.706Z,85
2016-12-13T08:55:04.968Z,90
2016-12-13T08:56:05.251Z,90
2016-12-13T08:57:04.944Z,90
2016-12-13T08:58:04.627Z,90
2016-12-13T08:59:04.617Z,90
2016-12-13T09:00:04.894Z,90
2016-12-13T09:01:04.591Z,90
2016-12-13T09:02:04.595Z,90
2016-12-13T09:03:04.586Z,90
2016-12-13T09:04:04.851Z,90
2016-12-13T09:05:04.540Z,85
2016-12-13T09:06:04.515Z,85
2016-12-13T09:07:04.812Z,85
2016-12-13T09:08:04.499Z,90
2016-12-13T09:09:04.787Z,90
2016-12-13T09:10:04.481Z,90
2016-12-13T09:11:04.470Z,90
2016-12-13T09:12:04.453Z,90
2016-12-13T09:13:04.428Z,90
2016-12-13T09:14:04.431Z,95
2016-12-13T09:15:04.411Z,95
2016-12-13T09:16:04.702Z,95
2016-12-13T09:17:04.385Z,100
2016-12-13T09:18:04.383Z,100
2016-12-13T09:19:04.364Z,100
2016-12-13T09:20:04.358Z,105
2016-12-13T09:21:04.346Z,105
2016-12-13T09:22:04.360Z,110
2016-12-13T09:23:04.306Z,115
2016-12-13T09:24:04.302Z,115
2016-12-13T09:25:04.288Z,115
2016-12-13T09:26:04.276Z,115
2016-12-13T09:27:04.266Z,115
2016-12-13T09:28:04.248Z,115
2016-12-13T09:29:04.244Z,120
2016-12-13T09:30:04.237Z,120
2016-12-13T09:31:04.212Z,125
2016-12-13T09:32:04.205Z,125
2016-12-13T09:33:04.192Z,130
2016-12-13T09:34:04.175Z,130
2016-12-13T09:35:04.173Z,130
2016-12-13T09:36:04.153Z,130
2016-12-13T09:37:04.164Z,130
2016-12-13T09:38:04.137Z,130
2016-12-13T09:39:04.122Z,130
2016-12-13T09:40:04.122Z,130
2016-12-13T09:41:04.401Z,130
2016-12-13T09:42:04.089Z,130
2016-12-13T09:43:04.098Z,130
2016-12-13T09:44:04.672Z,130
2016-12-13T09:45:04.077Z,130
2016-12-13T09:46:04.043Z,130
2016-12-13T09:47:04.025Z,130
2016-12-13T09:48:04.016Z,130
2016-12-13T09:49:04.004Z,130
2016-12-13T09:50:03.991Z,135
2016-12-13T09:51:03.977Z,140
2016-12-13T09:52:03.959Z,140
2016-12-13T09:53:04.258Z,145
2016-12-13T09:54:03.940Z,145
2016-12-13T09:55:03.921Z,145
2016-12-13T09:56:23.187Z,145
2016-12-13T09:57:03.903Z,145
2016-12-13T09:58:03.896Z,145
2016-12-13T09:59:03.888Z,140
2016-12-13T10:00:03.872Z,140
2016-12-13T10:01:03.858Z,135
2016-12-13T10:02:03.852Z,135
2016-12-13T10:03:04.445Z,135
2016-12-13T10:04:03.854Z,140
2016-12-13T10:05:03.806Z,140
2016-12-13T10:06:03.794Z,145
2016-12-13T10:07:03.783Z,145
2016-12-13T10:08:04.095Z,150
2016-12-13T10:09:03.767Z,155
2016-12-13T10:10:03.744Z,155
2016-12-13T10:11:03.744Z,160
2016-12-13T10:12:03.725Z,165
2016-12-13T10:13:03.715Z,165
2016-12-13T10:14:03.711Z,165
2016-12-13T10:15:04.000Z,160
2016-12-13T10:16:03.690Z,160
2016-12-13T10:17:04.004Z,160
2016-12-13T10:18:03.654Z,160
2016-12-13T10:19:03.653Z,160
2016-12-13T10:20:03.642Z,160
2016-12-13T10:21:03.632Z,160
2016-12-13T10:22:03.922Z,160
2016-12-13T10:23:03.609Z,160
2016-12-13T10:24:03.592Z,160
2016-12-13T10:25:03.587Z,160
2016-12-13T10:26:03.567Z,165
2016-12-13T10:27:03.562Z,165
2016-12-13T10:28:03.868Z,165
2016-12-13T10:29:03.541Z,165
2016-12-13T10:30:03.524Z,165
2016-12-13T10:31:03.813Z,165
2016-12-13T10:32:03.509Z,170
2016-12-13T10:33:03.501Z,170
2016-12-13T10:34:03.482Z,175
2016-12-13T10:35:03.465Z,175
2016-12-13T10:36:03.459Z,180
2016-12-13T10:37:03.447Z,180
2016-12-13T10:38:03.435Z,180
2016-12-13T10:39:03.439Z,180
2016-12-13T10:40:03.711Z,180
2016-12-13T10:41:03.410Z,180
2016-12-13T10:42:03.386Z,180
2016-12-13T10:43:03.380Z,180
2016-12-13T10:44:03.672Z,180
2016-12-13T10:45:03.355Z,180
2016-12-13T10:46:03.347Z,180
2016-12-13T10:47:03.331Z,180
2016-12-13T10:48:03.321Z,180
2016-12-13T10:49:03.308Z,175
2016-12-13T10:50:03.294Z,175
2016-12-13T10:51:03.287Z,170
2016-12-13T10:52:03.273Z,170
2016-12-13T10:53:03.265Z,165
2016-12-13T10:54:03.261Z,165
2016-12-13T10:55:03.245Z,160
2016-12-13T10:56:03.228Z,160
2016-12-13T10:57:03.215Z,160
2016-12-13T10:58:03.204Z,160
2016-12-13T10:59:03.203Z,170
2016-12-13T11:00:03.195Z,165
2016-12-13T11:01:03.180Z,165
2016-12-13T11:02:03.167Z,165
2016-12-13T11:03:03.154Z,160
2016-12-13T11:04:03.452Z,160
2016-12-13T11:05:03.130Z,160
2016-12-13T11:06:03.124Z,155
2016-12-13T11:07:03.116Z,155
2016-12-13T11:08:03.308Z,155
2016-12-13T11:09:03.089Z,155
2016-12-13T11:10:03.086Z,155
2016-12-13T11:11:03.066Z,155
2016-12-13T11:12:03.057Z,155
2016-12-13T11:13:03.051Z,155
2016-12-13T11:14:03.034Z,155
2016-12-13T11:15:03.020Z,150
2016-12-13T11:16:03.013Z,150
2016-12-13T11:17:02.999Z,150
2016-12-13T11:18:03.018Z,150
2016-12-13T11:19:02.979Z,150
2016-12-13T11:20:02.977Z,150
2016-12-13T11:21:03.264Z,150
2016-12-13T11:22:02.939Z,150
2016-12-13T11:23:03.542Z,145
2016-12-13T11:24:02.943Z,145
2016-12-13T11:25:02.923Z,145
2016-12-13T11:26:02.903Z,145
2016-12-13T11:27:02.889Z,150
2016-12-13T11:28:02.879Z,150
2016-12-13T11:29:02.873Z,150
2016-12-13T11:30:02.861Z,150
2016-12-13T11:31:02.871Z,150
2016-12-13T11:32:02.842Z,150
2016-12-13T11:33:02.822Z,145
2016-12-13T11:34:02.817Z,140
2016-12-13T11:35:02.803Z,140
2016-12-13T11:36:02.799Z,140
2016-12-13T11:37:02.778Z,135
2016-12-13T11:38:02.769Z,135
2016-12-13T11:39:02.763Z,135
2016-12-13T11:40:02.752Z,140
2016-12-13T11:41:02.740Z,135
2016-12-13T11:42:02.722Z,135
2016-12-13T11:43:02.719Z,140
2016-12-13T11:44:02.708Z,140
2016-12-13T11:45:02.703Z,140
2016-12-13T11:46:02.685Z,145
2016-12-13T11:47:02.678Z,150
2016-12-13T11:48:02.676Z,145
2016-12-13T11:49:02.970Z,140
2016-12-13T11:50:02.640Z,140
2016-12-13T11:51:02.927Z,135
2016-12-13T11:52:02.622Z,135
2016-12-13T11:53:02.607Z,135
2016-12-13T11:54:02.599Z,140
2016-12-13T11:55:02.584Z,140
2016-12-13T11:56:02.604Z,145
2016-12-13T11:57:02.561Z,145
2016-12-13T11:58:02.553Z,145
2016-12-13T11:59:02.553Z,145
2016-12-13T12:00:02.539Z,145
2016-12-13T12:01:02.823Z,145
2016-12-13T12:02:02.516Z,145
2016-12-13T12:03:02.816Z,145
2016-12-13T12:04:02.497Z,150
2016-12-13T12:05:02.475Z,150
2016-12-13T12:06:02.800Z,145
2016-12-13T12:07:02.458Z,145
2016-12-13T12:08:02.441Z,145
2016-12-13T12:09:02.440Z,145
2016-12-13T12:10:02.430Z,145
2016-12-13T12:11:02.418Z,140
2016-12-13T12:12:02.407Z,140
2016-12-13T12:13:02.404Z,135
2016-12-13T12:14:02.390Z,130
2016-12-13T12:15:02.383Z,130
2016-12-13T12:16:02.404Z,130
2016-12-13T12:17:02.354Z,125
2016-12-13T12:18:02.346Z,125
2016-12-13T12:19:02.330Z,125
2016-12-13T12:20:02.327Z,125
2016-12-13T12:21:02.319Z,130
2016-12-13T12:22:02.303Z,130
2016-12-13T12:23:02.300Z,130
2016-12-13T12:24:02.282Z,130
2016-12-13T12:25:02.268Z,130
2016-12-13T12:26:02.265Z,130
2016-12-13T12:27:02.284Z,130
2016-12-13T12:28:02.242Z,130
2016-12-13T12:29:02.223Z,130
2016-12-13T12:30:02.228Z,130
2016-12-13T12:31:02.212Z,130
2016-12-13T12:32:02.205Z,130
2016-12-13T12:33:02.204Z,130
2016-12-13T12:34:02.186Z,130
2016-12-13T12:35:02.165Z,130
2016-12-13T12:36:02.455Z,130
2016-12-13T12:37:02.147Z,130
2016-12-13T12:38:02.145Z,130
2016-12-13T12:39:02.122Z,130
2016-12-13T12:40:02.132Z,130
2016-12-13T12:41:02.103Z,130
2016-12-13T12:42:02.096Z,130
2016-12-13T12:43:02.080Z,130
2016-12-13T12:44:02.085Z,135
2016-12-13T12:45:02.067Z,135
2016-12-13T12:46:02.053Z,140
2016-12-13T12:47:02.042Z,140
2016-12-13T12:48:02.031Z,140
2016-12-13T12:49:02.321Z,140
2016-12-13T12:50:02.013Z,145
2016-12-13T12:51:02.000Z,145
2016-12-13T12:52:02.014Z,145
2016-12-13T12:53:01.992Z,145
2016-12-13T12:54:02.004Z,145
2016-12-13T12:55:01.957Z,145
2016-12-13T12:56:01.950Z,145
2016-12-13T12:57:01.934Z,140
2016-12-13T12:58:01.926Z,135
2016-12-13T12:59:02.221Z,130
2016-12-13T13:00:01.911Z,130
2016-12-13T13:01:01.897Z,125
2016-12-13T13:02:01.891Z,125
2016-12-13T13:03:01.871Z,125
2016-12-13T13:04:01.863Z,125
2016-12-13T13:05:01.861Z,125
2016-12-13T13:06:01.844Z,125
2016-12-13T13:07:01.837Z,125
2016-12-13T13:08:01.824Z,120
2016-12-13T13:09:01.812Z,120
2016-12-13T13:10:01.802Z,120
2016-12-13T13:11:01.796Z,120
2016-12-13T13:12:01.782Z,120
2016-12-13T13:13:01.769Z,120
2016-12-13T13:14:01.762Z,120
2016-12-13T13:15:01.757Z,120
2016-12-13T13:16:01.738Z,120
2016-12-13T13:17:01.731Z,115
2016-12-13T13:18:02.017Z,115
2016-12-13T13:19:01.709Z,115
2016-12-13T13:20:01.692Z,110
2016-12-13T13:21:01.682Z,110
2016-12-13T13:22:01.677Z,110
2016-12-13T13:23:01.665Z,110
2016-12-13T13:24:01.662Z,105
2016-12-13T13:25:01.651Z,105
2016-12-13T13:26:01.934Z,105
2016-12-13T13:27:01.648Z,105
2016-12-13T13:28:01.618Z,100
2016-12-13T13:29:01.608Z,100
2016-12-13T13:30:01.588Z,100
2016-12-13T13:31:01.586Z,95
2016-12-13T13:32:01.581Z,95
2016-12-13T13:33:01.863Z,95
2016-12-13T13:34:01.559Z,95
2016-12-13T13:35:01.543Z,90
2016-12-13T13:36:01.845Z,90
2016-12-13T13:37:01.518Z,90
2016-12-13T13:38:01.509Z,85
2016-12-13T13:39:01.499Z,85
2016-12-13T13:40:01.492Z,85
2016-12-13T13:41:01.476Z,80
2016-12-13T13:42:01.464Z,80
2016-12-13T13:43:01.455Z,80
2016-12-13T13:44:01.441Z,75
2016-12-13T13:45:01.444Z,75
2016-12-13T13:46:01.429Z,75
2016-12-13T13:47:01.416Z,75
2016-12-13T13:48:01.403Z,70
2016-12-13T13:49:01.391Z,70
2016-12-13T13:50:01.403Z,70
2016-12-13T13:51:01.374Z,70
2016-12-13T13:52:01.389Z,70
2016-12-13T13:53:01.350Z,70
2016-12-13T13:54:01.339Z,70
2016-12-13T13:55:01.637Z,65
2016-12-13T13:56:01.339Z,65
2016-12-13T13:57:01.339Z,65
2016-12-13T13:58:01.299Z,60
2016-12-13T13:59:01.284Z,60
2016-12-13T14:00:01.286Z,60
2016-12-13T14:01:01.270Z,55
2016-12-13T14:02:01.556Z,55
2016-12-13T14:03:01.241Z,55
2016-12-13T14:04:01.231Z,55
2016-12-13T14:05:01.222Z,50
2016-12-13T14:06:01.202Z,50
2016-12-13T14:07:01.202Z,50
2016-12-13T14:08:01.190Z,45
2016-12-13T14:09:01.170Z,45
2016-12-13T14:10:01.168Z,45
2016-12-13T14:11:01.454Z,40
2016-12-13T14:12:01.143Z,40
2016-12-13T14:13:01.143Z,40
2016-12-13T14:14:01.121Z,40
2016-12-13T14:15:01.104Z,40
2016-12-13T14:16:01.107Z,40
2016-12-13T14:17:01.396Z,35
2016-12-13T14:18:01.079Z,35
2016-12-13T14:19:01.070Z,35
2016-12-13T14:20:01.055Z,35
2016-12-13T14:21:01.060Z,35